createdAt,value
2023-05-22T00:01:36.869Z,3.30
2023-05-22T00:11:40.730Z,3.80
2023-05-22T00:21:44.571Z,4.40
2023-05-22T00:31:48.405Z,5.00
2023-05-22T00:41:55.682Z,3.90
2023-05-22T00:51:59.827Z,4.30
2023-05-22T01:02:03.741Z,4.40
2023-05-22T01:12:14.510Z,4.60
2023-05-22T01:22:22.122Z,4.90
2023-05-22T01:32:29.007Z,7.70
2023-05-22T01:42:33.127Z,6.40
2023-05-22T01:52:35.502Z,8.40
2023-05-22T02:02:42.927Z,8.10
2023-05-22T02:12:46.925Z,9.10
2023-05-22T02:22:50.468Z,9.30
2023-05-22T02:32:53.892Z,10.00
2023-05-22T02:42:57.736Z,11.20
2023-05-22T02:53:01.488Z,10.20
2023-05-22T03:03:04.945Z,11.70
2023-05-22T03:13:08.710Z,10.80
2023-05-22T03:23:12.018Z,10.40
2023-05-22T03:33:14.654Z,7.90
2023-05-22T03:43:18.366Z,8.30
2023-05-22T03:53:21.917Z,5.50
2023-05-22T04:03:25.619Z,4.70
2023-05-22T04:13:31.366Z,4.80
2023-05-22T04:23:35.277Z,4.00
2023-05-22T04:33:39.581Z,4.30
2023-05-22T04:43:43.486Z,5.10
2023-05-22T04:53:49.726Z,5.00
2023-05-22T05:03:53.603Z,4.70
2023-05-22T05:13:57.390Z,4.40
2023-05-22T05:24:01.861Z,4.90
2023-05-22T05:34:05.305Z,4.90
2023-05-22T05:44:08.931Z,5.30
2023-05-22T05:54:12.585Z,4.70
2023-05-22T06:04:16.333Z,5.40
2023-05-22T06:14:20.342Z,6.40
2023-05-22T06:24:24.085Z,5.60
2023-05-22T06:34:28.847Z,5.20
2023-05-22T06:44:32.870Z,5.10
2023-05-22T06:54:35.858Z,4.60
2023-05-22T07:04:39.452Z,4.70
2023-05-22T07:14:42.971Z,4.80
2023-05-22T07:24:47.056Z,3.80
2023-05-22T07:34:50.632Z,3.10
2023-05-22T07:44:54.893Z,4.00
2023-05-22T07:54:58.496Z,2.50
2023-05-22T08:05:03.936Z,3.60
2023-05-22T08:15:09.390Z,3.00
2023-05-22T08:25:13.912Z,2.80
2023-05-22T08:35:17.644Z,3.10
2023-05-22T08:45:21.826Z,2.70
2023-05-22T08:55:26.698Z,3.20
2023-05-22T09:05:31.131Z,3.10
2023-05-22T09:15:35.331Z,3.40
2023-05-22T09:25:39.169Z,3.50
2023-05-22T09:35:43.415Z,3.10
2023-05-22T09:45:47.078Z,3.00
2023-05-22T09:55:52.730Z,3.40
2023-05-22T10:05:58.944Z,3.10
2023-05-22T10:16:04.091Z,3.30
2023-05-22T10:26:08.557Z,3.30
2023-05-22T10:36:20.663Z,2.80
2023-05-22T10:46:24.516Z,3.50
2023-05-22T10:56:32.572Z,3.20
2023-05-22T11:06:35.991Z,3.80
2023-05-22T11:16:40.375Z,3.90
2023-05-22T11:26:44.715Z,3.10
2023-05-22T11:36:49.521Z,3.50
2023-05-22T11:46:53.989Z,3.50
2023-05-22T11:56:57.964Z,3.50
2023-05-22T12:07:01.976Z,3.40
2023-05-22T12:17:05.670Z,3.50
2023-05-22T12:27:08.477Z,3.10
2023-05-22T12:37:22.102Z,3.60
2023-05-22T12:47:26.607Z,3.00
2023-05-22T12:57:30.741Z,4.00
2023-05-22T13:07:34.538Z,2.90
2023-05-22T13:17:37.934Z,3.10
2023-05-22T13:27:42.205Z,3.30
2023-05-22T13:37:46.927Z,3.30
2023-05-22T13:47:50.777Z,3.90
2023-05-22T13:57:54.669Z,3.70
2023-05-22T14:07:58.621Z,2.70
2023-05-22T14:18:02.478Z,3.00
2023-05-22T14:28:07.040Z,2.50
2023-05-22T14:38:11.236Z,2.90
2023-05-22T14:48:15.277Z,3.20
2023-05-22T14:58:19.089Z,3.50
2023-05-22T15:08:22.754Z,3.10
2023-05-22T15:18:26.521Z,3.20
2023-05-22T15:28:30.863Z,3.60
2023-05-22T15:38:34.903Z,3.20
2023-05-22T15:48:38.705Z,3.30
2023-05-22T15:58:42.912Z,3.50
2023-05-22T16:08:46.470Z,3.10
2023-05-22T16:18:50.146Z,3.90
2023-05-22T16:28:53.894Z,4.00
2023-05-22T16:38:58.057Z,3.90
2023-05-22T16:49:01.964Z,3.90
2023-05-22T16:59:06.249Z,3.80
2023-05-22T17:09:10.165Z,3.20
2023-05-22T17:19:13.154Z,3.70
2023-05-22T17:29:16.785Z,3.80
2023-05-22T17:39:21.282Z,4.60
2023-05-22T17:49:25.300Z,4.20
2023-05-22T17:59:28.802Z,3.90
2023-05-22T18:09:32.231Z,4.30
2023-05-22T18:19:36.457Z,4.10
2023-05-22T18:29:40.093Z,4.40
2023-05-22T18:39:43.174Z,4.80
2023-05-22T18:49:46.891Z,4.90
2023-05-22T18:59:50.755Z,5.20
2023-05-22T19:09:54.827Z,5.00
2023-05-22T19:19:58.558Z,6.00
2023-05-22T19:30:02.467Z,6.80
2023-05-22T19:40:09.500Z,6.70
2023-05-22T19:50:13.709Z,8.00
2023-05-22T20:00:19.204Z,7.20
2023-05-22T20:10:23.307Z,7.10
2023-05-22T20:20:26.922Z,7.50
2023-05-22T20:30:30.815Z,11.00
2023-05-22T20:40:34.790Z,10.90
2023-05-22T20:50:39.950Z,11.90
2023-05-22T21:00:45.310Z,10.10
2023-05-22T21:10:48.812Z,9.20
2023-05-22T21:20:52.984Z,7.80
2023-05-22T21:30:56.913Z,7.10
2023-05-22T21:41:01.098Z,6.90
2023-05-22T21:51:05.128Z,7.40
2023-05-22T22:01:09.512Z,8.40
2023-05-22T22:11:13.306Z,8.70
2023-05-22T22:21:17.120Z,8.50
2023-05-22T22:31:21.161Z,7.20
2023-05-22T22:41:25.545Z,7.20
2023-05-22T22:51:29.668Z,7.00
2023-05-22T23:01:33.363Z,7.50
2023-05-22T23:11:37.753Z,7.10
2023-05-22T23:21:42.093Z,8.00
2023-05-22T23:31:46.875Z,8.80
2023-05-22T23:41:53.748Z,7.80
2023-05-22T23:51:57.135Z,8.60
